sensor_id;sensor_type;location;lat;lon;timestamp;P1;durP1;ratioP1;P2;durP2;ratioP2
6185;SDS011;3126;52.738;8.316;2022-07-29T00:04:54;1.35;;;1.25;;
6185;SDS011;3126;52.738;8.316;2022-07-29T00:09:55;3.30;;;1.75;;
6185;SDS011;3126;52.738;8.316;2022-07-29T00:14:57;5.30;;;1.42;;
6185;SDS011;3126;52.738;8.316;2022-07-29T00:19:58;3.03;;;1.63;;
6185;SDS011;3126;52.738;8.316;2022-07-29T00:25:00;3.75;;;1.38;;
6185;SDS011;3126;52.738;8.316;2022-07-29T00:30:01;3.22;;;1.38;;
6185;SDS011;3126;52.738;8.316;2022-07-29T00:35:02;3.05;;;1.30;;
6185;SDS011;3126;52.738;8.316;2022-07-29T00:40:23;2.60;;;1.40;;
6185;SDS011;3126;52.738;8.316;2022-07-29T00:45:24;3.33;;;1.92;;
6185;SDS011;3126;52.738;8.316;2022-07-29T00:50:26;3.45;;;1.35;;
6185;SDS011;3126;52.738;8.316;2022-07-29T00:55:27;4.63;;;1.50;;
6185;SDS011;3126;52.738;8.316;2022-07-29T01:00:30;1.40;;;1.30;;
6185;SDS011;3126;52.738;8.316;2022-07-29T01:10:32;2.55;;;1.88;;
6185;SDS011;3126;52.738;8.316;2022-07-29T01:15:34;3.75;;;1.38;;
6185;SDS011;3126;52.738;8.316;2022-07-29T01:26:27;2.72;;;1.58;;
6185;SDS011;3126;52.738;8.316;2022-07-29T01:36:37;4.43;;;1.88;;
6185;SDS011;3126;52.738;8.316;2022-07-29T01:41:44;1.30;;;1.20;;
6185;SDS011;3126;52.738;8.316;2022-07-29T01:46:58;2.00;;;1.30;;
6185;SDS011;3126;52.738;8.316;2022-07-29T01:52:04;2.20;;;1.45;;
6185;SDS011;3126;52.738;8.316;2022-07-29T01:57:06;1.98;;;1.42;;
6185;SDS011;3126;52.738;8.316;2022-07-29T02:02:08;3.08;;;1.48;;
6185;SDS011;3126;52.738;8.316;2022-07-29T02:07:10;4.85;;;1.80;;
6185;SDS011;3126;52.738;8.316;2022-07-29T02:12:14;4.07;;;1.88;;
6185;SDS011;3126;52.738;8.316;2022-07-29T02:17:16;1.70;;;1.23;;
6185;SDS011;3126;52.738;8.316;2022-07-29T02:22:20;1.77;;;1.40;;
6185;SDS011;3126;52.738;8.316;2022-07-29T02:27:21;3.38;;;1.27;;
6185;SDS011;3126;52.738;8.316;2022-07-29T02:32:23;4.30;;;1.30;;
6185;SDS011;3126;52.738;8.316;2022-07-29T02:37:25;1.58;;;1.48;;
6185;SDS011;3126;52.738;8.316;2022-07-29T02:42:27;1.40;;;1.30;;
6185;SDS011;3126;52.738;8.316;2022-07-29T02:47:42;2.78;;;1.70;;
6185;SDS011;3126;52.738;8.316;2022-07-29T03:02:50;1.80;;;1.48;;
6185;SDS011;3126;52.738;8.316;2022-07-29T03:07:52;3.25;;;1.60;;
6185;SDS011;3126;52.738;8.316;2022-07-29T03:12:55;3.75;;;1.67;;
6185;SDS011;3126;52.738;8.316;2022-07-29T03:17:56;3.38;;;1.80;;
6185;SDS011;3126;52.738;8.316;2022-07-29T03:22:57;6.07;;;1.48;;
6185;SDS011;3126;52.738;8.316;2022-07-29T03:27:58;2.97;;;1.67;;
6185;SDS011;3126;52.738;8.316;2022-07-29T03:32:59;2.22;;;1.70;;
6185;SDS011;3126;52.738;8.316;2022-07-29T03:38:01;3.25;;;1.45;;
6185;SDS011;3126;52.738;8.316;2022-07-29T03:43:02;2.80;;;1.80;;
6185;SDS011;3126;52.738;8.316;2022-07-29T03:48:08;2.08;;;1.58;;
6185;SDS011;3126;52.738;8.316;2022-07-29T03:53:10;4.28;;;1.75;;
6185;SDS011;3126;52.738;8.316;2022-07-29T03:58:12;2.88;;;1.50;;
6185;SDS011;3126;52.738;8.316;2022-07-29T04:03:13;2.88;;;1.75;;
6185;SDS011;3126;52.738;8.316;2022-07-29T04:08:14;3.10;;;2.03;;
6185;SDS011;3126;52.738;8.316;2022-07-29T04:13:15;3.00;;;1.90;;
6185;SDS011;3126;52.738;8.316;2022-07-29T04:18:16;4.07;;;1.63;;
6185;SDS011;3126;52.738;8.316;2022-07-29T04:23:17;5.40;;;1.75;;
6185;SDS011;3126;52.738;8.316;2022-07-29T04:28:18;1.63;;;1.52;;
6185;SDS011;3126;52.738;8.316;2022-07-29T04:33:19;3.10;;;1.73;;
6185;SDS011;3126;52.738;8.316;2022-07-29T04:38:20;2.88;;;1.50;;
6185;SDS011;3126;52.738;8.316;2022-07-29T04:43:22;4.30;;;1.80;;
6185;SDS011;3126;52.738;8.316;2022-07-29T04:48:23;2.08;;;1.52;;
6185;SDS011;3126;52.738;8.316;2022-07-29T04:53:24;3.00;;;1.70;;
6185;SDS011;3126;52.738;8.316;2022-07-29T04:58:25;5.35;;;1.80;;
6185;SDS011;3126;52.738;8.316;2022-07-29T05:03:26;2.22;;;1.58;;
6185;SDS011;3126;52.738;8.316;2022-07-29T05:08:28;2.50;;;1.60;;
6185;SDS011;3126;52.738;8.316;2022-07-29T05:13:29;3.47;;;1.63;;
6185;SDS011;3126;52.738;8.316;2022-07-29T05:18:30;3.35;;;2.08;;
6185;SDS011;3126;52.738;8.316;2022-07-29T05:23:31;4.40;;;1.95;;
6185;SDS011;3126;52.738;8.316;2022-07-29T05:28:35;3.35;;;1.45;;
6185;SDS011;3126;52.738;8.316;2022-07-29T05:33:36;5.05;;;1.75;;
6185;SDS011;3126;52.738;8.316;2022-07-29T05:38:37;3.58;;;1.80;;
6185;SDS011;3126;52.738;8.316;2022-07-29T05:43:38;2.83;;;1.85;;
6185;SDS011;3126;52.738;8.316;2022-07-29T05:48:39;3.42;;;1.90;;
6185;SDS011;3126;52.738;8.316;2022-07-29T05:53:40;2.70;;;1.90;;
6185;SDS011;3126;52.738;8.316;2022-07-29T05:58:41;3.83;;;2.03;;
6185;SDS011;3126;52.738;8.316;2022-07-29T06:03:44;2.88;;;1.92;;
6185;SDS011;3126;52.738;8.316;2022-07-29T06:08:46;5.30;;;1.80;;
6185;SDS011;3126;52.738;8.316;2022-07-29T06:13:47;4.57;;;2.30;;
6185;SDS011;3126;52.738;8.316;2022-07-29T06:18:48;2.10;;;1.88;;
6185;SDS011;3126;52.738;8.316;2022-07-29T06:23:49;6.78;;;2.28;;
6185;SDS011;3126;52.738;8.316;2022-07-29T06:28:51;4.65;;;1.77;;
6185;SDS011;3126;52.738;8.316;2022-07-29T06:33:52;2.90;;;1.80;;
6185;SDS011;3126;52.738;8.316;2022-07-29T06:38:53;3.92;;;1.90;;
6185;SDS011;3126;52.738;8.316;2022-07-29T06:43:54;6.70;;;2.00;;
6185;SDS011;3126;52.738;8.316;2022-07-29T06:48:56;2.65;;;2.20;;
6185;SDS011;3126;52.738;8.316;2022-07-29T06:53:59;4.10;;;1.88;;
6185;SDS011;3126;52.738;8.316;2022-07-29T06:59:00;4.18;;;1.92;;
6185;SDS011;3126;52.738;8.316;2022-07-29T07:04:01;4.57;;;1.58;;
6185;SDS011;3126;52.738;8.316;2022-07-29T07:09:03;2.97;;;1.58;;
6185;SDS011;3126;52.738;8.316;2022-07-29T07:14:05;3.80;;;1.92;;
6185;SDS011;3126;52.738;8.316;2022-07-29T07:19:07;3.08;;;1.75;;
6185;SDS011;3126;52.738;8.316;2022-07-29T07:24:08;5.40;;;1.88;;
6185;SDS011;3126;52.738;8.316;2022-07-29T07:29:09;2.53;;;1.33;;
6185;SDS011;3126;52.738;8.316;2022-07-29T07:34:11;3.85;;;1.92;;
6185;SDS011;3126;52.738;8.316;2022-07-29T07:39:13;3.30;;;1.58;;
6185;SDS011;3126;52.738;8.316;2022-07-29T07:44:15;2.78;;;1.65;;
6185;SDS011;3126;52.738;8.316;2022-07-29T07:49:16;4.90;;;1.70;;
6185;SDS011;3126;52.738;8.316;2022-07-29T07:54:18;4.90;;;1.67;;
6185;SDS011;3126;52.738;8.316;2022-07-29T07:59:20;3.40;;;1.88;;
6185;SDS011;3126;52.738;8.316;2022-07-29T08:04:21;2.35;;;1.50;;
6185;SDS011;3126;52.738;8.316;2022-07-29T08:09:23;5.25;;;1.70;;
6185;SDS011;3126;52.738;8.316;2022-07-29T08:14:26;3.75;;;1.92;;
6185;SDS011;3126;52.738;8.316;2022-07-29T08:19:27;2.38;;;1.75;;
6185;SDS011;3126;52.738;8.316;2022-07-29T08:24:27;4.28;;;1.67;;
6185;SDS011;3126;52.738;8.316;2022-07-29T08:29:45;3.05;;;1.60;;
6185;SDS011;3126;52.738;8.316;2022-07-29T08:34:46;4.78;;;1.73;;
6185;SDS011;3126;52.738;8.316;2022-07-29T08:39:48;2.45;;;1.75;;
6185;SDS011;3126;52.738;8.316;2022-07-29T08:44:49;2.85;;;1.65;;
6185;SDS011;3126;52.738;8.316;2022-07-29T08:49:50;10.65;;;2.17;;
6185;SDS011;3126;52.738;8.316;2022-07-29T08:54:52;4.75;;;1.20;;
6185;SDS011;3126;52.738;8.316;2022-07-29T08:59:53;3.83;;;1.52;;
6185;SDS011;3126;52.738;8.316;2022-07-29T09:04:55;4.03;;;1.70;;
6185;SDS011;3126;52.738;8.316;2022-07-29T09:09:57;3.47;;;1.63;;
6185;SDS011;3126;52.738;8.316;2022-07-29T09:20:10;2.55;;;1.73;;
6185;SDS011;3126;52.738;8.316;2022-07-29T09:25:11;5.07;;;1.48;;
6185;SDS011;3126;52.738;8.316;2022-07-29T09:30:13;4.68;;;1.90;;
6185;SDS011;3126;52.738;8.316;2022-07-29T09:35:21;4.53;;;1.65;;
6185;SDS011;3126;52.738;8.316;2022-07-29T09:45:29;4.55;;;1.55;;
6185;SDS011;3126;52.738;8.316;2022-07-29T09:50:37;5.35;;;1.90;;
6185;SDS011;3126;52.738;8.316;2022-07-29T09:55:48;5.70;;;1.88;;
6185;SDS011;3126;52.738;8.316;2022-07-29T10:00:52;6.43;;;2.50;;
6185;SDS011;3126;52.738;8.316;2022-07-29T10:06:09;6.28;;;1.75;;
6185;SDS011;3126;52.738;8.316;2022-07-29T10:16:13;3.67;;;1.35;;
6185;SDS011;3126;52.738;8.316;2022-07-29T10:21:14;4.50;;;1.60;;
6185;SDS011;3126;52.738;8.316;2022-07-29T10:26:15;7.63;;;1.63;;
6185;SDS011;3126;52.738;8.316;2022-07-29T10:31:20;5.10;;;1.77;;
6185;SDS011;3126;52.738;8.316;2022-07-29T10:36:38;3.53;;;1.90;;
6185;SDS011;3126;52.738;8.316;2022-07-29T10:47:02;4.57;;;2.03;;
6185;SDS011;3126;52.738;8.316;2022-07-29T10:57:20;3.58;;;1.75;;
6185;SDS011;3126;52.738;8.316;2022-07-29T11:07:36;3.05;;;1.50;;
6185;SDS011;3126;52.738;8.316;2022-07-29T11:22:53;2.85;;;1.70;;
6185;SDS011;3126;52.738;8.316;2022-07-29T11:27:54;8.00;;;1.90;;
6185;SDS011;3126;52.738;8.316;2022-07-29T11:33:15;3.33;;;1.67;;
6185;SDS011;3126;52.738;8.316;2022-07-29T11:38:29;3.13;;;1.63;;
6185;SDS011;3126;52.738;8.316;2022-07-29T11:43:45;4.70;;;1.67;;
6185;SDS011;3126;52.738;8.316;2022-07-29T11:48:48;3.95;;;1.80;;
6185;SDS011;3126;52.738;8.316;2022-07-29T11:58:50;2.55;;;1.48;;
6185;SDS011;3126;52.738;8.316;2022-07-29T12:04:01;10.35;;;2.33;;
6185;SDS011;3126;52.738;8.316;2022-07-29T12:09:08;3.35;;;1.35;;
6185;SDS011;3126;52.738;8.316;2022-07-29T12:14:23;1.73;;;1.40;;
6185;SDS011;3126;52.738;8.316;2022-07-29T12:19:25;1.85;;;1.65;;
6185;SDS011;3126;52.738;8.316;2022-07-29T12:24:26;3.83;;;1.60;;
6185;SDS011;3126;52.738;8.316;2022-07-29T12:29:29;2.50;;;1.40;;
6185;SDS011;3126;52.738;8.316;2022-07-29T12:34:31;3.83;;;1.40;;
6185;SDS011;3126;52.738;8.316;2022-07-29T12:39:32;3.30;;;1.67;;
6185;SDS011;3126;52.738;8.316;2022-07-29T12:44:43;4.60;;;1.75;;
6185;SDS011;3126;52.738;8.316;2022-07-29T12:49:45;4.30;;;1.67;;
6185;SDS011;3126;52.738;8.316;2022-07-29T12:54:47;4.18;;;1.77;;
6185;SDS011;3126;52.738;8.316;2022-07-29T13:00:08;5.05;;;1.55;;
6185;SDS011;3126;52.738;8.316;2022-07-29T13:05:10;3.20;;;1.40;;
6185;SDS011;3126;52.738;8.316;2022-07-29T13:15:15;1.50;;;1.40;;
6185;SDS011;3126;52.738;8.316;2022-07-29T13:20:16;1.50;;;1.40;;
6185;SDS011;3126;52.738;8.316;2022-07-29T13:25:24;5.13;;;1.38;;
6185;SDS011;3126;52.738;8.316;2022-07-29T13:30:26;3.13;;;1.52;;
6185;SDS011;3126;52.738;8.316;2022-07-29T13:35:27;2.30;;;1.40;;
6185;SDS011;3126;52.738;8.316;2022-07-29T13:40:29;4.80;;;1.70;;
6185;SDS011;3126;52.738;8.316;2022-07-29T13:45:31;3.08;;;1.40;;
6185;SDS011;3126;52.738;8.316;2022-07-29T13:50:32;3.20;;;1.70;;
6185;SDS011;3126;52.738;8.316;2022-07-29T14:00:43;5.38;;;1.80;;
6185;SDS011;3126;52.738;8.316;2022-07-29T14:05:44;3.55;;;1.58;;
6185;SDS011;3126;52.738;8.316;2022-07-29T14:10:45;2.03;;;1.50;;
6185;SDS011;3126;52.738;8.316;2022-07-29T14:15:48;2.85;;;1.50;;
6185;SDS011;3126;52.738;8.316;2022-07-29T14:20:49;3.72;;;1.33;;
6185;SDS011;3126;52.738;8.316;2022-07-29T14:25:51;4.13;;;1.45;;
6185;SDS011;3126;52.738;8.316;2022-07-29T14:30:55;5.38;;;1.70;;
6185;SDS011;3126;52.738;8.316;2022-07-29T14:41:00;4.70;;;1.90;;
6185;SDS011;3126;52.738;8.316;2022-07-29T14:46:01;6.15;;;2.40;;
6185;SDS011;3126;52.738;8.316;2022-07-29T14:51:02;5.38;;;2.30;;
6185;SDS011;3126;52.738;8.316;2022-07-29T14:56:03;6.43;;;2.40;;
6185;SDS011;3126;52.738;8.316;2022-07-29T15:01:04;4.70;;;2.40;;
6185;SDS011;3126;52.738;8.316;2022-07-29T15:06:05;3.88;;;2.60;;
6185;SDS011;3126;52.738;8.316;2022-07-29T15:11:07;6.25;;;2.58;;
6185;SDS011;3126;52.738;8.316;2022-07-29T15:16:10;2.95;;;1.60;;
6185;SDS011;3126;52.738;8.316;2022-07-29T15:21:11;3.33;;;2.50;;
6185;SDS011;3126;52.738;8.316;2022-07-29T15:26:13;6.22;;;2.58;;
6185;SDS011;3126;52.738;8.316;2022-07-29T15:31:14;4.80;;;2.85;;
6185;SDS011;3126;52.738;8.316;2022-07-29T15:36:17;5.90;;;3.25;;
6185;SDS011;3126;52.738;8.316;2022-07-29T15:41:19;6.32;;;3.25;;
6185;SDS011;3126;52.738;8.316;2022-07-29T15:46:21;7.20;;;3.15;;
6185;SDS011;3126;52.738;8.316;2022-07-29T15:51:40;5.68;;;3.10;;
6185;SDS011;3126;52.738;8.316;2022-07-29T15:56:41;5.78;;;3.55;;
6185;SDS011;3126;52.738;8.316;2022-07-29T16:01:43;9.10;;;3.72;;
6185;SDS011;3126;52.738;8.316;2022-07-29T16:06:44;4.60;;;2.85;;
6185;SDS011;3126;52.738;8.316;2022-07-29T16:11:46;7.63;;;2.85;;
6185;SDS011;3126;52.738;8.316;2022-07-29T16:16:49;3.85;;;2.97;;
6185;SDS011;3126;52.738;8.316;2022-07-29T16:21:50;5.25;;;2.40;;
6185;SDS011;3126;52.738;8.316;2022-07-29T16:26:50;3.80;;;2.53;;
6185;SDS011;3126;52.738;8.316;2022-07-29T16:31:51;2.75;;;2.50;;
6185;SDS011;3126;52.738;8.316;2022-07-29T16:36:52;4.78;;;2.40;;
6185;SDS011;3126;52.738;8.316;2022-07-29T16:41:53;5.47;;;2.60;;
6185;SDS011;3126;52.738;8.316;2022-07-29T16:46:55;4.43;;;2.70;;
6185;SDS011;3126;52.738;8.316;2022-07-29T16:51:58;4.68;;;2.60;;
6185;SDS011;3126;52.738;8.316;2022-07-29T16:57:00;4.03;;;2.35;;
6185;SDS011;3126;52.738;8.316;2022-07-29T17:02:01;3.28;;;2.42;;
6185;SDS011;3126;52.738;8.316;2022-07-29T17:07:02;6.65;;;3.03;;
6185;SDS011;3126;52.738;8.316;2022-07-29T17:17:07;5.18;;;2.50;;
6185;SDS011;3126;52.738;8.316;2022-07-29T17:22:11;3.50;;;2.63;;
6185;SDS011;3126;52.738;8.316;2022-07-29T17:27:12;5.68;;;2.28;;
6185;SDS011;3126;52.738;8.316;2022-07-29T17:32:13;6.45;;;2.22;;
6185;SDS011;3126;52.738;8.316;2022-07-29T17:37:15;6.65;;;2.60;;
6185;SDS011;3126;52.738;8.316;2022-07-29T17:42:16;6.13;;;2.70;;
6185;SDS011;3126;52.738;8.316;2022-07-29T17:47:20;3.75;;;2.45;;
6185;SDS011;3126;52.738;8.316;2022-07-29T17:52:22;5.93;;;2.55;;
6185;SDS011;3126;52.738;8.316;2022-07-29T17:57:23;4.43;;;2.90;;
6185;SDS011;3126;52.738;8.316;2022-07-29T18:02:24;7.13;;;3.00;;
6185;SDS011;3126;52.738;8.316;2022-07-29T18:07:25;5.60;;;2.70;;
6185;SDS011;3126;52.738;8.316;2022-07-29T18:12:26;5.43;;;2.55;;
6185;SDS011;3126;52.738;8.316;2022-07-29T18:17:27;5.53;;;2.67;;
6185;SDS011;3126;52.738;8.316;2022-07-29T18:22:28;4.95;;;2.58;;
6185;SDS011;3126;52.738;8.316;2022-07-29T18:27:31;5.50;;;2.95;;
6185;SDS011;3126;52.738;8.316;2022-07-29T18:32:32;3.10;;;2.80;;
6185;SDS011;3126;52.738;8.316;2022-07-29T18:37:34;3.58;;;2.28;;
6185;SDS011;3126;52.738;8.316;2022-07-29T18:42:36;5.90;;;3.75;;
6185;SDS011;3126;52.738;8.316;2022-07-29T18:47:40;3.75;;;2.83;;
6185;SDS011;3126;52.738;8.316;2022-07-29T18:52:48;5.05;;;3.40;;
6185;SDS011;3126;52.738;8.316;2022-07-29T18:57:50;3.40;;;3.00;;
6185;SDS011;3126;52.738;8.316;2022-07-29T19:07:55;7.32;;;3.15;;
6185;SDS011;3126;52.738;8.316;2022-07-29T19:12:56;5.88;;;3.33;;
6185;SDS011;3126;52.738;8.316;2022-07-29T19:17:59;9.32;;;4.80;;
6185;SDS011;3126;52.738;8.316;2022-07-29T19:23:01;8.82;;;4.13;;
6185;SDS011;3126;52.738;8.316;2022-07-29T19:28:02;5.90;;;3.30;;
6185;SDS011;3126;52.738;8.316;2022-07-29T19:33:03;7.22;;;3.53;;
6185;SDS011;3126;52.738;8.316;2022-07-29T19:38:04;5.32;;;2.88;;
6185;SDS011;3126;52.738;8.316;2022-07-29T19:43:06;3.58;;;2.60;;
6185;SDS011;3126;52.738;8.316;2022-07-29T19:48:07;5.10;;;2.83;;
6185;SDS011;3126;52.738;8.316;2022-07-29T19:53:08;4.70;;;2.85;;
6185;SDS011;3126;52.738;8.316;2022-07-29T19:58:09;4.65;;;2.60;;
6185;SDS011;3126;52.738;8.316;2022-07-29T20:03:09;4.18;;;2.63;;
6185;SDS011;3126;52.738;8.316;2022-07-29T20:08:10;5.60;;;2.97;;
6185;SDS011;3126;52.738;8.316;2022-07-29T20:13:10;5.10;;;3.08;;
6185;SDS011;3126;52.738;8.316;2022-07-29T20:18:11;4.40;;;3.20;;
6185;SDS011;3126;52.738;8.316;2022-07-29T20:28:18;4.38;;;3.20;;
6185;SDS011;3126;52.738;8.316;2022-07-29T20:33:19;6.05;;;3.30;;
6185;SDS011;3126;52.738;8.316;2022-07-29T20:38:20;5.82;;;3.50;;
6185;SDS011;3126;52.738;8.316;2022-07-29T20:43:21;4.47;;;3.15;;
6185;SDS011;3126;52.738;8.316;2022-07-29T20:48:23;8.07;;;3.70;;
6185;SDS011;3126;52.738;8.316;2022-07-29T20:53:25;4.85;;;3.83;;
6185;SDS011;3126;52.738;8.316;2022-07-29T20:58:26;5.00;;;3.97;;
6185;SDS011;3126;52.738;8.316;2022-07-29T21:03:27;7.38;;;3.80;;
6185;SDS011;3126;52.738;8.316;2022-07-29T21:08:28;3.92;;;3.15;;
6185;SDS011;3126;52.738;8.316;2022-07-29T21:13:29;5.45;;;3.72;;
6185;SDS011;3126;52.738;8.316;2022-07-29T21:18:33;6.35;;;3.95;;
6185;SDS011;3126;52.738;8.316;2022-07-29T21:23:36;6.50;;;4.43;;
6185;SDS011;3126;52.738;8.316;2022-07-29T21:28:37;6.00;;;4.13;;
6185;SDS011;3126;52.738;8.316;2022-07-29T21:33:43;6.63;;;4.13;;
6185;SDS011;3126;52.738;8.316;2022-07-29T21:38:44;4.95;;;4.30;;
6185;SDS011;3126;52.738;8.316;2022-07-29T21:43:45;4.93;;;3.90;;
6185;SDS011;3126;52.738;8.316;2022-07-29T21:48:46;7.60;;;4.35;;
6185;SDS011;3126;52.738;8.316;2022-07-29T21:53:47;8.95;;;4.25;;
6185;SDS011;3126;52.738;8.316;2022-07-29T21:58:49;6.45;;;4.25;;
6185;SDS011;3126;52.738;8.316;2022-07-29T22:03:50;6.05;;;4.30;;
6185;SDS011;3126;52.738;8.316;2022-07-29T22:08:51;6.72;;;4.30;;
6185;SDS011;3126;52.738;8.316;2022-07-29T22:13:52;8.20;;;4.55;;
6185;SDS011;3126;52.738;8.316;2022-07-29T22:18:53;5.82;;;4.25;;
6185;SDS011;3126;52.738;8.316;2022-07-29T22:23:53;4.72;;;4.18;;
6185;SDS011;3126;52.738;8.316;2022-07-29T22:28:54;4.90;;;4.40;;
6185;SDS011;3126;52.738;8.316;2022-07-29T22:33:54;7.38;;;6.47;;
6185;SDS011;3126;52.738;8.316;2022-07-29T22:38:55;8.95;;;6.20;;
6185;SDS011;3126;52.738;8.316;2022-07-29T22:43:55;7.80;;;4.88;;
6185;SDS011;3126;52.738;8.316;2022-07-29T22:48:56;4.75;;;3.97;;
6185;SDS011;3126;52.738;8.316;2022-07-29T22:53:58;6.32;;;4.15;;
6185;SDS011;3126;52.738;8.316;2022-07-29T22:59:00;4.97;;;4.22;;
6185;SDS011;3126;52.738;8.316;2022-07-29T23:04:01;8.77;;;4.60;;
6185;SDS011;3126;52.738;8.316;2022-07-29T23:09:03;6.68;;;4.85;;
6185;SDS011;3126;52.738;8.316;2022-07-29T23:14:04;5.82;;;5.28;;
6185;SDS011;3126;52.738;8.316;2022-07-29T23:19:05;8.20;;;5.07;;
6185;SDS011;3126;52.738;8.316;2022-07-29T23:24:06;6.30;;;5.18;;
6185;SDS011;3126;52.738;8.316;2022-07-29T23:29:10;6.32;;;5.70;;
6185;SDS011;3126;52.738;8.316;2022-07-29T23:34:11;7.05;;;6.35;;
6185;SDS011;3126;52.738;8.316;2022-07-29T23:39:12;5.90;;;5.03;;
6185;SDS011;3126;52.738;8.316;2022-07-29T23:44:13;5.30;;;4.80;;
6185;SDS011;3126;52.738;8.316;2022-07-29T23:49:14;5.82;;;5.25;;
6185;SDS011;3126;52.738;8.316;2022-07-29T23:54:15;7.40;;;5.65;;
6185;SDS011;3126;52.738;8.316;2022-07-29T23:59:16;7.47;;;6.75;;
